sensor_id;sensor_type;location;lat;lon;timestamp;P1;durP1;ratioP1;P2;durP2;ratioP2
24761;SDS011;12865;51.934;10.330;2023-02-15T00:01:09;5.25;;;4.15;;
24761;SDS011;12865;51.934;10.330;2023-02-15T00:03:55;8.30;;;5.55;;
24761;SDS011;12865;51.934;10.330;2023-02-15T00:06:41;6.60;;;5.90;;
24761;SDS011;12865;51.934;10.330;2023-02-15T00:09:27;6.55;;;5.15;;
24761;SDS011;12865;51.934;10.330;2023-02-15T00:12:12;8.68;;;6.25;;
24761;SDS011;12865;51.934;10.330;2023-02-15T00:14:59;7.38;;;5.50;;
24761;SDS011;12865;51.934;10.330;2023-02-15T00:17:45;8.48;;;4.93;;
24761;SDS011;12865;51.934;10.330;2023-02-15T00:20:30;8.23;;;4.97;;
24761;SDS011;12865;51.934;10.330;2023-02-15T00:23:16;7.13;;;4.63;;
24761;SDS011;12865;51.934;10.330;2023-02-15T00:28:57;5.20;;;4.15;;
24761;SDS011;12865;51.934;10.330;2023-02-15T00:31:46;4.10;;;3.70;;
24761;SDS011;12865;51.934;10.330;2023-02-15T00:34:32;4.35;;;3.78;;
24761;SDS011;12865;51.934;10.330;2023-02-15T00:37:17;4.35;;;3.90;;
24761;SDS011;12865;51.934;10.330;2023-02-15T00:40:03;6.93;;;3.95;;
24761;SDS011;12865;51.934;10.330;2023-02-15T00:42:49;3.88;;;3.47;;
24761;SDS011;12865;51.934;10.330;2023-02-15T00:45:36;6.03;;;4.25;;
24761;SDS011;12865;51.934;10.330;2023-02-15T00:48:22;5.20;;;4.18;;
24761;SDS011;12865;51.934;10.330;2023-02-15T00:51:08;5.47;;;4.38;;
24761;SDS011;12865;51.934;10.330;2023-02-15T00:53:53;4.53;;;4.10;;
24761;SDS011;12865;51.934;10.330;2023-02-15T00:56:39;5.18;;;3.88;;
24761;SDS011;12865;51.934;10.330;2023-02-15T00:59:25;5.38;;;3.75;;
24761;SDS011;12865;51.934;10.330;2023-02-15T01:02:11;4.53;;;3.80;;
24761;SDS011;12865;51.934;10.330;2023-02-15T01:04:56;5.40;;;3.65;;
24761;SDS011;12865;51.934;10.330;2023-02-15T01:07:42;5.05;;;3.78;;
24761;SDS011;12865;51.934;10.330;2023-02-15T01:10:28;5.85;;;4.53;;
24761;SDS011;12865;51.934;10.330;2023-02-15T01:13:14;4.43;;;3.97;;
24761;SDS011;12865;51.934;10.330;2023-02-15T01:16:01;5.38;;;3.90;;
24761;SDS011;12865;51.934;10.330;2023-02-15T01:18:48;5.25;;;3.33;;
24761;SDS011;12865;51.934;10.330;2023-02-15T01:21:34;4.95;;;3.55;;
24761;SDS011;12865;51.934;10.330;2023-02-15T01:24:20;4.43;;;3.92;;
24761;SDS011;12865;51.934;10.330;2023-02-15T01:27:05;4.32;;;3.80;;
24761;SDS011;12865;51.934;10.330;2023-02-15T01:29:51;5.25;;;4.07;;
24761;SDS011;12865;51.934;10.330;2023-02-15T01:32:37;6.53;;;3.75;;
24761;SDS011;12865;51.934;10.330;2023-02-15T01:35:22;3.92;;;3.15;;
24761;SDS011;12865;51.934;10.330;2023-02-15T01:38:09;5.82;;;3.67;;
24761;SDS011;12865;51.934;10.330;2023-02-15T01:40:54;4.68;;;3.75;;
24761;SDS011;12865;51.934;10.330;2023-02-15T01:44:40;5.18;;;3.03;;
24761;SDS011;12865;51.934;10.330;2023-02-15T01:50:30;5.13;;;3.70;;
24761;SDS011;12865;51.934;10.330;2023-02-15T01:53:20;4.45;;;4.00;;
24761;SDS011;12865;51.934;10.330;2023-02-15T01:56:13;4.20;;;3.80;;
24761;SDS011;12865;51.934;10.330;2023-02-15T01:59:04;4.25;;;3.80;;
24761;SDS011;12865;51.934;10.330;2023-02-15T02:01:55;3.90;;;3.58;;
24761;SDS011;12865;51.934;10.330;2023-02-15T02:04:47;9.05;;;4.57;;
24761;SDS011;12865;51.934;10.330;2023-02-15T02:07:35;4.10;;;3.60;;
24761;SDS011;12865;51.934;10.330;2023-02-15T02:10:24;5.65;;;4.00;;
24761;SDS011;12865;51.934;10.330;2023-02-15T02:13:10;4.50;;;3.72;;
24761;SDS011;12865;51.934;10.330;2023-02-15T02:33:57;5.18;;;3.58;;
24761;SDS011;12865;51.934;10.330;2023-02-15T02:37:04;6.03;;;3.13;;
24761;SDS011;12865;51.934;10.330;2023-02-15T02:40:16;3.28;;;2.80;;
24761;SDS011;12865;51.934;10.330;2023-02-15T02:43:11;4.85;;;2.95;;
24761;SDS011;12865;51.934;10.330;2023-02-15T02:46:28;4.15;;;3.03;;
24761;SDS011;12865;51.934;10.330;2023-02-15T02:49:15;3.33;;;2.80;;
24761;SDS011;12865;51.934;10.330;2023-02-15T02:52:02;3.78;;;3.28;;
24761;SDS011;12865;51.934;10.330;2023-02-15T02:54:52;3.35;;;3.00;;
24761;SDS011;12865;51.934;10.330;2023-02-15T02:57:43;4.47;;;2.95;;
24761;SDS011;12865;51.934;10.330;2023-02-15T03:00:40;4.45;;;3.00;;
24761;SDS011;12865;51.934;10.330;2023-02-15T03:03:44;4.22;;;2.45;;
24761;SDS011;12865;51.934;10.330;2023-02-15T03:06:44;4.80;;;3.50;;
24761;SDS011;12865;51.934;10.330;2023-02-15T03:09:36;6.68;;;4.55;;
24761;SDS011;12865;51.934;10.330;2023-02-15T03:12:32;4.90;;;4.03;;
24761;SDS011;12865;51.934;10.330;2023-02-15T03:15:20;3.53;;;3.03;;
24761;SDS011;12865;51.934;10.330;2023-02-15T03:18:09;4.75;;;3.20;;
24761;SDS011;12865;51.934;10.330;2023-02-15T03:20:55;2.92;;;2.72;;
24761;SDS011;12865;51.934;10.330;2023-02-15T03:23:43;2.55;;;2.30;;
24761;SDS011;12865;51.934;10.330;2023-02-15T03:26:28;3.95;;;2.60;;
24761;SDS011;12865;51.934;10.330;2023-02-15T03:29:15;2.33;;;2.13;;
24761;SDS011;12865;51.934;10.330;2023-02-15T03:32:05;3.65;;;1.90;;
24761;SDS011;12865;51.934;10.330;2023-02-15T03:34:54;2.67;;;2.30;;
24761;SDS011;12865;51.934;10.330;2023-02-15T03:37:41;3.67;;;2.45;;
24761;SDS011;12865;51.934;10.330;2023-02-15T03:40:38;3.50;;;2.85;;
24761;SDS011;12865;51.934;10.330;2023-02-15T03:49:53;4.65;;;4.25;;
24761;SDS011;12865;51.934;10.330;2023-02-15T03:52:44;5.43;;;4.82;;
24761;SDS011;12865;51.934;10.330;2023-02-15T03:55:30;5.25;;;4.32;;
24761;SDS011;12865;51.934;10.330;2023-02-15T03:58:16;6.78;;;4.40;;
24761;SDS011;12865;51.934;10.330;2023-02-15T04:01:24;7.18;;;5.70;;
24761;SDS011;12865;51.934;10.330;2023-02-15T04:07:20;8.48;;;5.95;;
24761;SDS011;12865;51.934;10.330;2023-02-15T04:10:06;9.00;;;6.38;;
24761;SDS011;12865;51.934;10.330;2023-02-15T04:13:10;7.40;;;4.63;;
24761;SDS011;12865;51.934;10.330;2023-02-15T04:15:55;3.10;;;2.38;;
24761;SDS011;12865;51.934;10.330;2023-02-15T04:18:50;2.15;;;1.92;;
24761;SDS011;12865;51.934;10.330;2023-02-15T04:21:54;2.03;;;1.77;;
24761;SDS011;12865;51.934;10.330;2023-02-15T04:24:59;2.67;;;1.88;;
24761;SDS011;12865;51.934;10.330;2023-02-15T04:27:57;1.67;;;1.58;;
24761;SDS011;12865;51.934;10.330;2023-02-15T04:30:43;1.67;;;1.58;;
24761;SDS011;12865;51.934;10.330;2023-02-15T04:33:29;2.10;;;1.90;;
24761;SDS011;12865;51.934;10.330;2023-02-15T04:36:15;1.90;;;1.65;;
24761;SDS011;12865;51.934;10.330;2023-02-15T04:39:00;1.90;;;1.80;;
24761;SDS011;12865;51.934;10.330;2023-02-15T04:41:46;1.63;;;1.52;;
24761;SDS011;12865;51.934;10.330;2023-02-15T04:44:33;1.70;;;1.60;;
24761;SDS011;12865;51.934;10.330;2023-02-15T04:47:18;2.10;;;1.48;;
24761;SDS011;12865;51.934;10.330;2023-02-15T04:50:05;2.08;;;1.70;;
24761;SDS011;12865;51.934;10.330;2023-02-15T04:52:51;1.60;;;1.50;;
24761;SDS011;12865;51.934;10.330;2023-02-15T04:55:36;1.58;;;1.35;;
24761;SDS011;12865;51.934;10.330;2023-02-15T04:58:22;1.55;;;1.45;;
24761;SDS011;12865;51.934;10.330;2023-02-15T05:01:08;1.77;;;1.45;;
24761;SDS011;12865;51.934;10.330;2023-02-15T05:03:54;1.50;;;1.40;;
24761;SDS011;12865;51.934;10.330;2023-02-15T05:06:39;1.60;;;1.50;;
24761;SDS011;12865;51.934;10.330;2023-02-15T05:09:25;1.50;;;1.40;;
24761;SDS011;12865;51.934;10.330;2023-02-15T05:12:11;1.75;;;1.50;;
24761;SDS011;12865;51.934;10.330;2023-02-15T05:14:56;1.80;;;1.70;;
24761;SDS011;12865;51.934;10.330;2023-02-15T05:17:42;1.52;;;1.42;;
24761;SDS011;12865;51.934;10.330;2023-02-15T05:20:28;1.65;;;1.55;;
24761;SDS011;12865;51.934;10.330;2023-02-15T05:23:13;1.40;;;1.30;;
24761;SDS011;12865;51.934;10.330;2023-02-15T05:25:59;2.53;;;2.00;;
24761;SDS011;12865;51.934;10.330;2023-02-15T05:29:03;1.80;;;1.70;;
24761;SDS011;12865;51.934;10.330;2023-02-15T05:31:50;1.70;;;1.60;;
24761;SDS011;12865;51.934;10.330;2023-02-15T05:34:35;2.15;;;1.75;;
24761;SDS011;12865;51.934;10.330;2023-02-15T05:37:21;2.42;;;2.03;;
24761;SDS011;12865;51.934;10.330;2023-02-15T05:40:07;3.97;;;2.63;;
24761;SDS011;12865;51.934;10.330;2023-02-15T05:42:53;2.22;;;2.00;;
24761;SDS011;12865;51.934;10.330;2023-02-15T05:45:39;2.25;;;2.05;;
24761;SDS011;12865;51.934;10.330;2023-02-15T05:48:25;9.75;;;8.95;;
24761;SDS011;12865;51.934;10.330;2023-02-15T05:51:12;5.68;;;5.13;;
24761;SDS011;12865;51.934;10.330;2023-02-15T05:53:59;5.20;;;4.40;;
24761;SDS011;12865;51.934;10.330;2023-02-15T05:56:44;5.88;;;3.70;;
24761;SDS011;12865;51.934;10.330;2023-02-15T05:59:30;5.00;;;3.78;;
24761;SDS011;12865;51.934;10.330;2023-02-15T06:02:16;4.78;;;3.90;;
24761;SDS011;12865;51.934;10.330;2023-02-15T06:05:02;5.22;;;4.70;;
24761;SDS011;12865;51.934;10.330;2023-02-15T06:07:49;6.75;;;4.57;;
24761;SDS011;12865;51.934;10.330;2023-02-15T06:10:35;7.55;;;5.20;;
24761;SDS011;12865;51.934;10.330;2023-02-15T06:13:21;6.75;;;4.30;;
24761;SDS011;12865;51.934;10.330;2023-02-15T06:16:06;5.82;;;4.63;;
24761;SDS011;12865;51.934;10.330;2023-02-15T06:18:52;4.80;;;3.78;;
24761;SDS011;12865;51.934;10.330;2023-02-15T06:21:38;6.22;;;4.45;;
24761;SDS011;12865;51.934;10.330;2023-02-15T06:24:23;6.82;;;5.07;;
24761;SDS011;12865;51.934;10.330;2023-02-15T06:27:09;8.43;;;5.30;;
24761;SDS011;12865;51.934;10.330;2023-02-15T06:29:55;3.67;;;3.10;;
24761;SDS011;12865;51.934;10.330;2023-02-15T06:32:41;5.13;;;3.80;;
24761;SDS011;12865;51.934;10.330;2023-02-15T06:35:27;7.85;;;5.88;;
24761;SDS011;12865;51.934;10.330;2023-02-15T06:38:13;7.85;;;5.47;;
24761;SDS011;12865;51.934;10.330;2023-02-15T06:40:58;8.32;;;5.80;;
24761;SDS011;12865;51.934;10.330;2023-02-15T06:43:44;7.13;;;5.85;;
24761;SDS011;12865;51.934;10.330;2023-02-15T06:46:30;8.07;;;5.50;;
24761;SDS011;12865;51.934;10.330;2023-02-15T06:49:16;8.77;;;5.50;;
24761;SDS011;12865;51.934;10.330;2023-02-15T06:52:01;8.55;;;5.35;;
24761;SDS011;12865;51.934;10.330;2023-02-15T06:54:48;7.20;;;5.15;;
24761;SDS011;12865;51.934;10.330;2023-02-15T06:57:33;8.35;;;6.15;;
24761;SDS011;12865;51.934;10.330;2023-02-15T07:00:19;8.13;;;6.10;;
24761;SDS011;12865;51.934;10.330;2023-02-15T07:03:07;8.93;;;5.15;;
24761;SDS011;12865;51.934;10.330;2023-02-15T07:05:57;5.82;;;4.07;;
24761;SDS011;12865;51.934;10.330;2023-02-15T07:08:43;7.22;;;4.70;;
24761;SDS011;12865;51.934;10.330;2023-02-15T07:11:29;4.70;;;4.20;;
24761;SDS011;12865;51.934;10.330;2023-02-15T07:14:33;3.08;;;2.60;;
24761;SDS011;12865;51.934;10.330;2023-02-15T07:17:19;3.47;;;2.05;;
24761;SDS011;12865;51.934;10.330;2023-02-15T07:20:05;1.80;;;1.70;;
24761;SDS011;12865;51.934;10.330;2023-02-15T07:22:55;2.58;;;2.30;;
24761;SDS011;12865;51.934;10.330;2023-02-15T07:25:40;3.17;;;2.88;;
24761;SDS011;12865;51.934;10.330;2023-02-15T07:28:26;3.40;;;2.60;;
24761;SDS011;12865;51.934;10.330;2023-02-15T07:31:11;3.17;;;2.45;;
24761;SDS011;12865;51.934;10.330;2023-02-15T07:33:57;3.15;;;1.92;;
24761;SDS011;12865;51.934;10.330;2023-02-15T07:36:43;2.72;;;2.50;;
24761;SDS011;12865;51.934;10.330;2023-02-15T07:39:32;3.20;;;2.85;;
24761;SDS011;12865;51.934;10.330;2023-02-15T07:42:18;5.00;;;3.35;;
24761;SDS011;12865;51.934;10.330;2023-02-15T07:45:05;5.35;;;3.20;;
24761;SDS011;12865;51.934;10.330;2023-02-15T07:47:51;4.00;;;3.22;;
24761;SDS011;12865;51.934;10.330;2023-02-15T07:50:36;5.30;;;3.40;;
24761;SDS011;12865;51.934;10.330;2023-02-15T07:53:22;4.90;;;2.88;;
24761;SDS011;12865;51.934;10.330;2023-02-15T07:56:11;3.60;;;3.30;;
24761;SDS011;12865;51.934;10.330;2023-02-15T07:58:58;3.17;;;2.90;;
24761;SDS011;12865;51.934;10.330;2023-02-15T08:01:48;3.47;;;3.17;;
24761;SDS011;12865;51.934;10.330;2023-02-15T08:04:34;4.72;;;3.40;;
24761;SDS011;12865;51.934;10.330;2023-02-15T08:07:19;3.40;;;3.03;;
24761;SDS011;12865;51.934;10.330;2023-02-15T08:10:05;4.53;;;3.42;;
24761;SDS011;12865;51.934;10.330;2023-02-15T08:12:51;5.82;;;3.83;;
24761;SDS011;12865;51.934;10.330;2023-02-15T08:15:37;5.30;;;3.88;;
24761;SDS011;12865;51.934;10.330;2023-02-15T08:18:22;4.07;;;3.67;;
24761;SDS011;12865;51.934;10.330;2023-02-15T08:21:08;4.00;;;3.33;;
24761;SDS011;12865;51.934;10.330;2023-02-15T08:23:54;4.22;;;3.15;;
24761;SDS011;12865;51.934;10.330;2023-02-15T08:26:41;7.20;;;4.32;;
24761;SDS011;12865;51.934;10.330;2023-02-15T08:29:30;5.75;;;4.80;;
24761;SDS011;12865;51.934;10.330;2023-02-15T08:32:17;9.50;;;7.00;;
24761;SDS011;12865;51.934;10.330;2023-02-15T08:35:03;11.20;;;9.18;;
24761;SDS011;12865;51.934;10.330;2023-02-15T08:37:49;11.65;;;8.73;;
24761;SDS011;12865;51.934;10.330;2023-02-15T08:40:34;12.73;;;9.40;;
24761;SDS011;12865;51.934;10.330;2023-02-15T08:43:20;11.63;;;9.05;;
24761;SDS011;12865;51.934;10.330;2023-02-15T08:46:06;10.50;;;8.82;;
24761;SDS011;12865;51.934;10.330;2023-02-15T08:48:52;14.15;;;9.57;;
24761;SDS011;12865;51.934;10.330;2023-02-15T08:51:38;11.98;;;8.77;;
24761;SDS011;12865;51.934;10.330;2023-02-15T08:54:24;12.25;;;9.25;;
24761;SDS011;12865;51.934;10.330;2023-02-15T08:57:10;14.93;;;9.70;;
24761;SDS011;12865;51.934;10.330;2023-02-15T08:59:56;13.32;;;9.05;;
24761;SDS011;12865;51.934;10.330;2023-02-15T09:02:41;11.57;;;9.27;;
24761;SDS011;12865;51.934;10.330;2023-02-15T09:05:27;10.65;;;8.75;;
24761;SDS011;12865;51.934;10.330;2023-02-15T09:08:13;12.07;;;9.05;;
24761;SDS011;12865;51.934;10.330;2023-02-15T09:11:11;13.30;;;8.95;;
24761;SDS011;12865;51.934;10.330;2023-02-15T09:13:59;13.45;;;9.70;;
24761;SDS011;12865;51.934;10.330;2023-02-15T09:16:59;11.73;;;9.15;;
24761;SDS011;12865;51.934;10.330;2023-02-15T09:19:44;13.25;;;9.30;;
24761;SDS011;12865;51.934;10.330;2023-02-15T09:22:30;11.68;;;9.18;;
24761;SDS011;12865;51.934;10.330;2023-02-15T09:25:16;12.05;;;9.15;;
24761;SDS011;12865;51.934;10.330;2023-02-15T09:28:02;13.07;;;8.23;;
24761;SDS011;12865;51.934;10.330;2023-02-15T09:30:48;12.77;;;8.98;;
24761;SDS011;12865;51.934;10.330;2023-02-15T09:33:34;11.18;;;8.63;;
24761;SDS011;12865;51.934;10.330;2023-02-15T09:36:25;9.82;;;8.02;;
24761;SDS011;12865;51.934;10.330;2023-02-15T09:39:14;9.80;;;8.32;;
24761;SDS011;12865;51.934;10.330;2023-02-15T09:51:45;8.68;;;7.68;;
24761;SDS011;12865;51.934;10.330;2023-02-15T10:06:39;11.25;;;7.93;;
24761;SDS011;12865;51.934;10.330;2023-02-15T10:12:37;14.50;;;9.40;;
24761;SDS011;12865;51.934;10.330;2023-02-15T10:15:44;10.30;;;7.47;;
24761;SDS011;12865;51.934;10.330;2023-02-15T10:18:40;8.82;;;6.18;;
24761;SDS011;12865;51.934;10.330;2023-02-15T10:21:39;10.50;;;8.18;;
24761;SDS011;12865;51.934;10.330;2023-02-15T10:24:47;8.40;;;5.40;;
24761;SDS011;12865;51.934;10.330;2023-02-15T10:27:46;8.75;;;6.38;;
24761;SDS011;12865;51.934;10.330;2023-02-15T10:30:39;8.23;;;7.13;;
24761;SDS011;12865;51.934;10.330;2023-02-15T10:51:52;6.53;;;5.43;;
24761;SDS011;12865;51.934;10.330;2023-02-15T10:55:08;7.63;;;5.28;;
24761;SDS011;12865;51.934;10.330;2023-02-15T11:01:18;7.75;;;5.10;;
24761;SDS011;12865;51.934;10.330;2023-02-15T11:07:11;10.38;;;6.07;;
24761;SDS011;12865;51.934;10.330;2023-02-15T11:13:10;7.30;;;5.43;;
24761;SDS011;12865;51.934;10.330;2023-02-15T11:16:06;6.70;;;6.00;;
24761;SDS011;12865;51.934;10.330;2023-02-15T11:18:59;8.38;;;6.13;;
24761;SDS011;12865;51.934;10.330;2023-02-15T11:21:58;9.82;;;5.95;;
24761;SDS011;12865;51.934;10.330;2023-02-15T11:24:46;9.43;;;6.18;;
24761;SDS011;12865;51.934;10.330;2023-02-15T11:27:33;11.23;;;6.32;;
24761;SDS011;12865;51.934;10.330;2023-02-15T11:30:20;10.38;;;6.03;;
24761;SDS011;12865;51.934;10.330;2023-02-15T11:33:12;7.90;;;5.95;;
24761;SDS011;12865;51.934;10.330;2023-02-15T11:36:05;9.32;;;5.65;;
24761;SDS011;12865;51.934;10.330;2023-02-15T11:38:56;11.82;;;6.28;;
24761;SDS011;12865;51.934;10.330;2023-02-15T11:41:51;6.50;;;4.97;;
24761;SDS011;12865;51.934;10.330;2023-02-15T11:44:41;8.80;;;5.13;;
24761;SDS011;12865;51.934;10.330;2023-02-15T11:47:34;6.47;;;4.45;;
24761;SDS011;12865;51.934;10.330;2023-02-15T11:50:21;7.20;;;5.30;;
24761;SDS011;12865;51.934;10.330;2023-02-15T11:53:16;7.70;;;5.40;;
24761;SDS011;12865;51.934;10.330;2023-02-15T11:56:12;7.00;;;5.25;;
24761;SDS011;12865;51.934;10.330;2023-02-15T11:59:21;7.95;;;6.78;;
24761;SDS011;12865;51.934;10.330;2023-02-15T12:02:26;9.40;;;6.88;;
24761;SDS011;12865;51.934;10.330;2023-02-15T12:05:16;16.70;;;6.57;;
24761;SDS011;12865;51.934;10.330;2023-02-15T12:08:12;7.18;;;5.13;;
24761;SDS011;12865;51.934;10.330;2023-02-15T12:11:06;8.50;;;4.85;;
24761;SDS011;12865;51.934;10.330;2023-02-15T12:13:57;8.55;;;5.45;;
24761;SDS011;12865;51.934;10.330;2023-02-15T12:16:51;6.93;;;4.57;;
24761;SDS011;12865;51.934;10.330;2023-02-15T12:19:40;6.07;;;4.85;;
24761;SDS011;12865;51.934;10.330;2023-02-15T12:22:27;6.65;;;5.07;;
24761;SDS011;12865;51.934;10.330;2023-02-15T12:28:22;6.07;;;4.47;;
24761;SDS011;12865;51.934;10.330;2023-02-15T12:31:23;6.35;;;4.40;;
24761;SDS011;12865;51.934;10.330;2023-02-15T12:34:13;10.45;;;4.50;;
24761;SDS011;12865;51.934;10.330;2023-02-15T12:37:23;5.65;;;4.20;;
24761;SDS011;12865;51.934;10.330;2023-02-15T12:40:20;5.68;;;4.45;;
24761;SDS011;12865;51.934;10.330;2023-02-15T12:43:24;7.00;;;4.57;;
24761;SDS011;12865;51.934;10.330;2023-02-15T12:49:16;6.32;;;4.60;;
24761;SDS011;12865;51.934;10.330;2023-02-15T12:52:04;4.72;;;4.00;;
24761;SDS011;12865;51.934;10.330;2023-02-15T12:54:58;6.72;;;4.30;;
24761;SDS011;12865;51.934;10.330;2023-02-15T12:58:04;8.05;;;5.22;;
24761;SDS011;12865;51.934;10.330;2023-02-15T13:04:04;8.40;;;6.10;;
24761;SDS011;12865;51.934;10.330;2023-02-15T13:06:59;7.13;;;5.82;;
24761;SDS011;12865;51.934;10.330;2023-02-15T13:09:47;6.70;;;5.93;;
24761;SDS011;12865;51.934;10.330;2023-02-15T13:12:35;8.18;;;5.85;;
24761;SDS011;12865;51.934;10.330;2023-02-15T13:15:28;7.95;;;6.18;;
24761;SDS011;12865;51.934;10.330;2023-02-15T13:19:02;10.00;;;6.72;;
24761;SDS011;12865;51.934;10.330;2023-02-15T13:21:33;10.65;;;6.88;;
24761;SDS011;12865;51.934;10.330;2023-02-15T13:24:28;10.85;;;7.32;;
24761;SDS011;12865;51.934;10.330;2023-02-15T13:27:20;10.13;;;7.10;;
24761;SDS011;12865;51.934;10.330;2023-02-15T13:30:32;9.40;;;7.40;;
24761;SDS011;12865;51.934;10.330;2023-02-15T13:33:23;8.13;;;6.50;;
24761;SDS011;12865;51.934;10.330;2023-02-15T13:36:23;9.10;;;7.00;;
24761;SDS011;12865;51.934;10.330;2023-02-15T13:51:35;7.95;;;6.32;;
24761;SDS011;12865;51.934;10.330;2023-02-15T14:03:51;7.65;;;4.57;;
24761;SDS011;12865;51.934;10.330;2023-02-15T14:09:57;8.10;;;4.00;;
24761;SDS011;12865;51.934;10.330;2023-02-15T14:25:27;5.20;;;4.65;;
24761;SDS011;12865;51.934;10.330;2023-02-15T14:28:25;5.97;;;4.30;;
24761;SDS011;12865;51.934;10.330;2023-02-15T14:31:19;7.68;;;4.40;;
24761;SDS011;12865;51.934;10.330;2023-02-15T14:34:24;7.13;;;3.80;;
24761;SDS011;12865;51.934;10.330;2023-02-15T14:37:13;5.63;;;4.50;;
24761;SDS011;12865;51.934;10.330;2023-02-15T14:46:21;5.03;;;3.40;;
24761;SDS011;12865;51.934;10.330;2023-02-15T14:49:23;6.10;;;3.50;;
24761;SDS011;12865;51.934;10.330;2023-02-15T14:52:12;4.40;;;3.45;;
24761;SDS011;12865;51.934;10.330;2023-02-15T14:54:58;4.97;;;3.80;;
24761;SDS011;12865;51.934;10.330;2023-02-15T14:57:55;5.47;;;3.88;;
24761;SDS011;12865;51.934;10.330;2023-02-15T15:00:43;6.72;;;4.90;;
24761;SDS011;12865;51.934;10.330;2023-02-15T15:03:29;6.50;;;4.13;;
24761;SDS011;12865;51.934;10.330;2023-02-15T15:06:31;7.93;;;4.38;;
24761;SDS011;12865;51.934;10.330;2023-02-15T15:09:26;7.22;;;4.20;;
24761;SDS011;12865;51.934;10.330;2023-02-15T15:15:13;4.80;;;3.60;;
24761;SDS011;12865;51.934;10.330;2023-02-15T15:27:36;4.40;;;4.00;;
24761;SDS011;12865;51.934;10.330;2023-02-15T15:33:36;5.57;;;4.00;;
24761;SDS011;12865;51.934;10.330;2023-02-15T15:37:14;9.75;;;5.00;;
24761;SDS011;12865;51.934;10.330;2023-02-15T15:40:22;5.75;;;4.57;;
24761;SDS011;12865;51.934;10.330;2023-02-15T15:46:50;7.85;;;4.63;;
24761;SDS011;12865;51.934;10.330;2023-02-15T15:50:15;6.88;;;4.40;;
24761;SDS011;12865;51.934;10.330;2023-02-15T15:53:04;6.05;;;3.47;;
24761;SDS011;12865;51.934;10.330;2023-02-15T15:55:52;5.72;;;3.45;;
24761;SDS011;12865;51.934;10.330;2023-02-15T15:58:44;4.57;;;2.95;;
24761;SDS011;12865;51.934;10.330;2023-02-15T16:01:37;10.30;;;6.72;;
24761;SDS011;12865;51.934;10.330;2023-02-15T16:04:28;8.48;;;6.82;;
24761;SDS011;12865;51.934;10.330;2023-02-15T16:12:53;11.15;;;8.00;;
24761;SDS011;12865;51.934;10.330;2023-02-15T16:15:44;11.13;;;9.00;;
24761;SDS011;12865;51.934;10.330;2023-02-15T16:18:36;13.25;;;10.45;;
24761;SDS011;12865;51.934;10.330;2023-02-15T16:21:28;12.98;;;10.32;;
24761;SDS011;12865;51.934;10.330;2023-02-15T16:24:42;12.10;;;8.85;;
24761;SDS011;12865;51.934;10.330;2023-02-15T16:27:52;18.85;;;12.43;;
24761;SDS011;12865;51.934;10.330;2023-02-15T16:30:38;20.95;;;15.07;;
24761;SDS011;12865;51.934;10.330;2023-02-15T16:33:33;17.58;;;12.98;;
24761;SDS011;12865;51.934;10.330;2023-02-15T16:36:25;19.88;;;13.32;;
24761;SDS011;12865;51.934;10.330;2023-02-15T16:39:19;18.40;;;13.80;;
24761;SDS011;12865;51.934;10.330;2023-02-15T16:42:05;16.17;;;12.45;;
24761;SDS011;12865;51.934;10.330;2023-02-15T16:44:54;16.50;;;12.68;;
24761;SDS011;12865;51.934;10.330;2023-02-15T16:47:53;16.65;;;11.77;;
24761;SDS011;12865;51.934;10.330;2023-02-15T16:50:45;17.27;;;11.73;;
24761;SDS011;12865;51.934;10.330;2023-02-15T16:53:42;19.33;;;12.68;;
24761;SDS011;12865;51.934;10.330;2023-02-15T16:59:19;15.32;;;11.77;;
24761;SDS011;12865;51.934;10.330;2023-02-15T17:02:18;14.32;;;10.63;;
24761;SDS011;12865;51.934;10.330;2023-02-15T17:14:17;7.72;;;5.03;;
24761;SDS011;12865;51.934;10.330;2023-02-15T17:17:00;6.60;;;5.43;;
24761;SDS011;12865;51.934;10.330;2023-02-15T17:19:57;5.95;;;4.20;;
24761;SDS011;12865;51.934;10.330;2023-02-15T17:22:43;5.10;;;3.97;;
24761;SDS011;12865;51.934;10.330;2023-02-15T17:25:32;5.20;;;3.97;;
24761;SDS011;12865;51.934;10.330;2023-02-15T17:28:23;5.03;;;4.50;;
24761;SDS011;12865;51.934;10.330;2023-02-15T17:31:12;5.63;;;4.32;;
24761;SDS011;12865;51.934;10.330;2023-02-15T17:34:01;5.38;;;4.65;;
24761;SDS011;12865;51.934;10.330;2023-02-15T17:36:57;5.65;;;4.70;;
24761;SDS011;12865;51.934;10.330;2023-02-15T17:39:44;13.63;;;10.43;;
24761;SDS011;12865;51.934;10.330;2023-02-15T17:42:30;7.85;;;6.32;;
24761;SDS011;12865;51.934;10.330;2023-02-15T17:45:16;7.28;;;5.75;;
24761;SDS011;12865;51.934;10.330;2023-02-15T17:48:03;8.38;;;6.22;;
24761;SDS011;12865;51.934;10.330;2023-02-15T17:50:50;8.95;;;7.13;;
24761;SDS011;12865;51.934;10.330;2023-02-15T17:53:36;13.45;;;12.05;;
24761;SDS011;12865;51.934;10.330;2023-02-15T17:56:22;12.90;;;11.55;;
24761;SDS011;12865;51.934;10.330;2023-02-15T17:59:08;27.48;;;24.77;;
24761;SDS011;12865;51.934;10.330;2023-02-15T18:01:55;14.38;;;12.88;;
24761;SDS011;12865;51.934;10.330;2023-02-15T18:04:59;13.35;;;10.93;;
24761;SDS011;12865;51.934;10.330;2023-02-15T18:08:05;26.23;;;23.15;;
24761;SDS011;12865;51.934;10.330;2023-02-15T18:11:13;16.77;;;13.93;;
24761;SDS011;12865;51.934;10.330;2023-02-15T18:14:17;7.25;;;6.38;;
24761;SDS011;12865;51.934;10.330;2023-02-15T18:17:03;6.47;;;5.55;;
24761;SDS011;12865;51.934;10.330;2023-02-15T18:19:49;9.15;;;5.75;;
24761;SDS011;12865;51.934;10.330;2023-02-15T18:22:35;6.70;;;5.45;;
24761;SDS011;12865;51.934;10.330;2023-02-15T18:25:21;6.30;;;4.90;;
24761;SDS011;12865;51.934;10.330;2023-02-15T18:28:09;6.00;;;5.40;;
24761;SDS011;12865;51.934;10.330;2023-02-15T18:30:55;5.78;;;5.15;;
24761;SDS011;12865;51.934;10.330;2023-02-15T18:33:41;7.38;;;5.50;;
24761;SDS011;12865;51.934;10.330;2023-02-15T18:36:33;8.18;;;5.22;;
24761;SDS011;12865;51.934;10.330;2023-02-15T18:39:37;6.43;;;5.35;;
24761;SDS011;12865;51.934;10.330;2023-02-15T18:42:26;7.22;;;5.30;;
24761;SDS011;12865;51.934;10.330;2023-02-15T18:45:19;7.35;;;5.55;;
24761;SDS011;12865;51.934;10.330;2023-02-15T18:48:09;5.95;;;5.35;;
24761;SDS011;12865;51.934;10.330;2023-02-15T18:50:54;6.88;;;5.55;;
24761;SDS011;12865;51.934;10.330;2023-02-15T18:53:40;6.93;;;5.78;;
24761;SDS011;12865;51.934;10.330;2023-02-15T18:56:26;6.65;;;5.25;;
24761;SDS011;12865;51.934;10.330;2023-02-15T18:59:13;6.90;;;5.55;;
24761;SDS011;12865;51.934;10.330;2023-02-15T19:02:00;7.78;;;5.82;;
24761;SDS011;12865;51.934;10.330;2023-02-15T19:04:46;7.63;;;6.15;;
24761;SDS011;12865;51.934;10.330;2023-02-15T19:07:32;7.03;;;5.70;;
24761;SDS011;12865;51.934;10.330;2023-02-15T19:10:23;6.90;;;5.45;;
24761;SDS011;12865;51.934;10.330;2023-02-15T19:13:10;7.43;;;5.38;;
24761;SDS011;12865;51.934;10.330;2023-02-15T19:15:57;6.88;;;5.20;;
24761;SDS011;12865;51.934;10.330;2023-02-15T19:18:44;6.60;;;4.90;;
24761;SDS011;12865;51.934;10.330;2023-02-15T19:21:30;8.43;;;5.53;;
24761;SDS011;12865;51.934;10.330;2023-02-15T19:24:20;7.55;;;5.55;;
24761;SDS011;12865;51.934;10.330;2023-02-15T19:27:29;11.07;;;5.32;;
24761;SDS011;12865;51.934;10.330;2023-02-15T19:30:18;6.90;;;5.30;;
24761;SDS011;12865;51.934;10.330;2023-02-15T19:33:17;6.43;;;5.18;;
24761;SDS011;12865;51.934;10.330;2023-02-15T19:36:04;7.88;;;5.85;;
24761;SDS011;12865;51.934;10.330;2023-02-15T19:38:56;6.32;;;5.35;;
24761;SDS011;12865;51.934;10.330;2023-02-15T19:41:42;5.85;;;4.57;;
24761;SDS011;12865;51.934;10.330;2023-02-15T19:44:28;7.10;;;5.65;;